Impacts METAR Board INFO
IDs:

KDEN - Denver Intl, CO, US

Updated at: 1055 UTC 18 Dec 2017
Potential Impact None Slight Moderate High
Time17/22Z 17/23Z 18/00Z 18/01Z 18/02Z 18/03Z 18/04Z 18/05Z 18/06Z 18/07Z 18/08Z 18/09Z 18/10Z
VIS10 10 10 10 10 10 10 10 8 9 9 8
CIG200 200 -- -- -- -- -- -- -- -- -- --
CoverBKNBKNSCTSCTSCTSCTSCTFEWCLRCLRCLRCLR
FltCatVFRVFRVFRVFRVFRVFRVFRVFRVFRVFRVFRVFR
WX------------------------
WDir120150130110120160230240220230300240
WSpd4 8 5 5 5 8 8 9 7 5 5 7
WGst-- -- -- -- -- -- -- -- -- -- -- --
Raw hourly METARs
KDEN 172153Z 12004KT 10SM FEW020 SCT130 BKN200 05/M05 A2987 RMK AO2 SLP116 T00501050 $
KDEN 172253Z 15008KT 10SM SCT140 BKN200 03/M06 A2987 RMK AO2 SLP120 T00331061 $
KDEN 172353Z 13005KT 10SM FEW140 SCT200 01/M06 A2988 RMK AO2 SLP130 T00061061 10050 20000 53002 $
KDEN 180053Z 11005KT 10SM SCT200 M02/M07 A2990 RMK AO2 SLP142 T10171067 $
KDEN 180153Z 12005KT 10SM FEW140 SCT200 M03/M07 A2992 RMK AO2 SLP149 T10331072 $
KDEN 180253Z 16008KT 10SM FEW140 SCT200 M04/M08 A2993 RMK AO2 SLP155 T10391078 51012 $
KDEN 180353Z 23008KT 10SM SCT200 M04/M08 A2994 RMK AO2 SLP161 T10391083 $
KDEN 180453Z 24009KT 10SM FEW200 M05/M08 A2994 RMK AO2 SLP161 T10501083 $
KDEN 180553Z 22007KT 8SM CLR M04/M07 A2993 RMK AO2 SLP153 T10391072 10006 21056 50002 $
KDEN 180653Z 23005KT 9SM CLR M05/M08 A2993 RMK AO2 SLP151 T10501083 400501056 $
KDEN 180753Z 30005KT 9SM CLR M03/M07 A2995 RMK AO2 SLP151 T10331072 $
KDEN 180853Z 24007KT 8SM CLR M06/M08 A2997 RMK AO2 SLP162 T10561083 53009 $